sensor_id;sensor_type;location;lat;lon;timestamp;pressure;altitude;pressure_sealevel;temperature;humidity
5755;BME280;2902;42.130;24.732;2023-06-19T00:00:15;99300.19;;;21.32;79.59
5755;BME280;2902;42.130;24.732;2023-06-19T00:02:43;99298.00;;;21.29;79.85
5755;BME280;2902;42.130;24.732;2023-06-19T00:05:10;99303.94;;;21.26;79.91
5755;BME280;2902;42.130;24.732;2023-06-19T00:07:37;99313.13;;;21.30;79.68
5755;BME280;2902;42.130;24.732;2023-06-19T00:10:04;99300.72;;;21.29;79.94
5755;BME280;2902;42.130;24.732;2023-06-19T00:12:33;99299.63;;;21.35;79.42
5755;BME280;2902;42.130;24.732;2023-06-19T00:15:00;99298.53;;;21.26;79.71
5755;BME280;2902;42.130;24.732;2023-06-19T00:17:27;99300.16;;;21.22;80.12
5755;BME280;2902;42.130;24.732;2023-06-19T00:19:54;99304.22;;;21.20;80.05
5755;BME280;2902;42.130;24.732;2023-06-19T00:22:20;99306.66;;;21.16;80.53
5755;BME280;2902;42.130;24.732;2023-06-19T00:24:47;99313.13;;;21.15;80.24
5755;BME280;2902;42.130;24.732;2023-06-19T00:27:14;99317.44;;;21.11;80.36
5755;BME280;2902;42.130;24.732;2023-06-19T00:29:42;99311.75;;;21.08;80.30
5755;BME280;2902;42.130;24.732;2023-06-19T00:32:09;99316.91;;;21.09;80.36
5755;BME280;2902;42.130;24.732;2023-06-19T00:34:35;99309.88;;;21.13;79.97
5755;BME280;2902;42.130;24.732;2023-06-19T00:37:04;99316.91;;;21.04;80.13
5755;BME280;2902;42.130;24.732;2023-06-19T00:39:30;99280.63;;;20.80;80.28
5755;BME280;2902;42.130;24.732;2023-06-19T00:41:58;99312.28;;;21.00;80.12
5755;BME280;2902;42.130;24.732;2023-06-19T00:44:24;99320.38;;;20.95;80.46
5755;BME280;2902;42.130;24.732;2023-06-19T00:46:57;99315.00;;;20.95;80.46
5755;BME280;2902;42.130;24.732;2023-06-19T00:49:24;99274.09;;;20.61;80.55
5755;BME280;2902;42.130;24.732;2023-06-19T00:51:52;99310.34;;;20.90;81.03
5755;BME280;2902;42.130;24.732;2023-06-19T00:54:19;99315.75;;;20.85;80.65
5755;BME280;2902;42.130;24.732;2023-06-19T00:56:46;99318.69;;;20.79;80.79
5755;BME280;2902;42.130;24.732;2023-06-19T00:59:16;99314.38;;;20.83;80.56
5755;BME280;2902;42.130;24.732;2023-06-19T01:01:43;99313.56;;;20.82;80.64
5755;BME280;2902;42.130;24.732;2023-06-19T01:04:12;99308.72;;;20.79;80.54
5755;BME280;2902;42.130;24.732;2023-06-19T01:06:43;99313.28;;;20.74;80.37
5755;BME280;2902;42.130;24.732;2023-06-19T01:09:15;99313.00;;;20.70;80.97
5755;BME280;2902;42.130;24.732;2023-06-19T01:11:47;99310.59;;;20.69;80.91
5755;BME280;2902;42.130;24.732;2023-06-19T01:14:18;99301.66;;;20.68;80.79
5755;BME280;2902;42.130;24.732;2023-06-19T01:16:46;99312.97;;;20.65;80.70
5755;BME280;2902;42.130;24.732;2023-06-19T01:19:17;99310.03;;;20.67;80.69
5755;BME280;2902;42.130;24.732;2023-06-19T01:21:45;99306.78;;;20.65;80.45
5755;BME280;2902;42.130;24.732;2023-06-19T01:24:14;99308.09;;;20.62;80.51
5755;BME280;2902;42.130;24.732;2023-06-19T01:26:41;99308.09;;;20.57;80.87
5755;BME280;2902;42.130;24.732;2023-06-19T01:29:12;99309.72;;;20.58;80.83
5755;BME280;2902;42.130;24.732;2023-06-19T01:31:45;99308.09;;;20.52;80.91
5755;BME280;2902;42.130;24.732;2023-06-19T01:34:15;99307.25;;;20.51;80.97
5755;BME280;2902;42.130;24.732;2023-06-19T01:36:44;99304.31;;;20.53;80.70
5755;BME280;2902;42.130;24.732;2023-06-19T01:39:12;99299.47;;;20.50;80.68
5755;BME280;2902;42.130;24.732;2023-06-19T01:41:40;99307.50;;;20.45;81.12
5755;BME280;2902;42.130;24.732;2023-06-19T01:44:07;99307.00;;;20.48;80.83
5755;BME280;2902;42.130;24.732;2023-06-19T01:46:34;99297.81;;;20.49;80.91
5755;BME280;2902;42.130;24.732;2023-06-19T01:49:01;99300.78;;;20.47;80.79
5755;BME280;2902;42.130;24.732;2023-06-19T01:51:32;99295.13;;;20.49;80.61
5755;BME280;2902;42.130;24.732;2023-06-19T01:53:59;99297.56;;;20.55;80.51
5755;BME280;2902;42.130;24.732;2023-06-19T01:56:27;99300.00;;;20.57;80.32
5755;BME280;2902;42.130;24.732;2023-06-19T01:58:54;99298.63;;;20.49;80.45
5755;BME280;2902;42.130;24.732;2023-06-19T02:01:21;99296.75;;;20.50;80.46
5755;BME280;2902;42.130;24.732;2023-06-19T02:03:48;99295.09;;;20.44;80.40
5755;BME280;2902;42.130;24.732;2023-06-19T02:06:14;99298.91;;;20.53;80.26
5755;BME280;2902;42.130;24.732;2023-06-19T02:08:41;99294.56;;;20.47;80.23
5755;BME280;2902;42.130;24.732;2023-06-19T02:11:08;99297.03;;;20.48;80.04
5755;BME280;2902;42.130;24.732;2023-06-19T02:13:36;99300.50;;;20.49;80.10
5755;BME280;2902;42.130;24.732;2023-06-19T02:16:03;99286.47;;;20.42;80.04
5755;BME280;2902;42.130;24.732;2023-06-19T02:18:29;99305.38;;;20.47;80.02
5755;BME280;2902;42.130;24.732;2023-06-19T02:20:56;99305.66;;;20.50;79.67
5755;BME280;2902;42.130;24.732;2023-06-19T02:23:23;99308.63;;;20.54;79.55
5755;BME280;2902;42.130;24.732;2023-06-19T02:25:50;99321.06;;;20.55;79.49
5755;BME280;2902;42.130;24.732;2023-06-19T02:28:16;99319.97;;;20.56;79.61
5755;BME280;2902;42.130;24.732;2023-06-19T02:30:44;99325.63;;;20.59;78.97
5755;BME280;2902;42.130;24.732;2023-06-19T02:33:12;99322.97;;;20.65;78.92
5755;BME280;2902;42.130;24.732;2023-06-19T02:35:39;99333.75;;;20.59;79.15
5755;BME280;2902;42.130;24.732;2023-06-19T02:38:06;99324.03;;;20.63;78.99
5755;BME280;2902;42.130;24.732;2023-06-19T02:40:33;99319.44;;;20.59;78.95
5755;BME280;2902;42.130;24.732;2023-06-19T02:43:00;99325.38;;;20.56;79.04
5755;BME280;2902;42.130;24.732;2023-06-19T02:45:27;99331.03;;;20.59;78.85
5755;BME280;2902;42.130;24.732;2023-06-19T02:47:55;99314.06;;;20.59;78.73
5755;BME280;2902;42.130;24.732;2023-06-19T02:50:22;99325.63;;;20.59;78.70
5755;BME280;2902;42.130;24.732;2023-06-19T02:52:48;99327.03;;;20.67;78.18
5755;BME280;2902;42.130;24.732;2023-06-19T02:55:15;99328.09;;;20.61;78.17
5755;BME280;2902;42.130;24.732;2023-06-19T02:57:42;99328.09;;;20.66;78.00
5755;BME280;2902;42.130;24.732;2023-06-19T03:00:11;99333.81;;;20.75;77.47
5755;BME280;2902;42.130;24.732;2023-06-19T03:02:38;99337.59;;;20.74;77.27
5755;BME280;2902;42.130;24.732;2023-06-19T03:05:12;99330.28;;;20.74;77.26
5755;BME280;2902;42.130;24.732;2023-06-19T03:07:41;99331.41;;;20.88;76.88
5755;BME280;2902;42.130;24.732;2023-06-19T03:10:08;99329.00;;;20.92;76.97
5755;BME280;2902;42.130;24.732;2023-06-19T03:12:35;99332.03;;;21.00;76.40
5755;BME280;2902;42.130;24.732;2023-06-19T03:15:02;99332.06;;;21.25;75.53
5755;BME280;2902;42.130;24.732;2023-06-19T03:17:28;99332.03;;;21.40;74.94
5755;BME280;2902;42.130;24.732;2023-06-19T03:19:55;99335.84;;;21.24;75.46
5755;BME280;2902;42.130;24.732;2023-06-19T03:22:23;99337.47;;;21.20;76.11
5755;BME280;2902;42.130;24.732;2023-06-19T03:24:50;99336.38;;;21.16;76.08
5755;BME280;2902;42.130;24.732;2023-06-19T03:27:17;99334.72;;;21.05;76.90
5755;BME280;2902;42.130;24.732;2023-06-19T03:29:44;99343.41;;;21.17;76.39
5755;BME280;2902;42.130;24.732;2023-06-19T03:32:11;99347.69;;;21.08;76.68
5755;BME280;2902;42.130;24.732;2023-06-19T03:34:37;99343.91;;;21.14;76.69
5755;BME280;2902;42.130;24.732;2023-06-19T03:37:05;99339.88;;;21.02;76.79
5755;BME280;2902;42.130;24.732;2023-06-19T03:39:33;99338.22;;;21.01;76.90
5755;BME280;2902;42.130;24.732;2023-06-19T03:42:00;99345.00;;;21.18;76.31
5755;BME280;2902;42.130;24.732;2023-06-19T03:44:27;99338.53;;;21.44;75.45
5755;BME280;2902;42.130;24.732;2023-06-19T03:46:53;99352.88;;;21.70;75.03
5755;BME280;2902;42.130;24.732;2023-06-19T03:49:20;99354.78;;;21.84;74.04
5755;BME280;2902;42.130;24.732;2023-06-19T03:51:47;99345.56;;;22.00;73.15
5755;BME280;2902;42.130;24.732;2023-06-19T03:54:13;99347.47;;;21.90;73.66
5755;BME280;2902;42.130;24.732;2023-06-19T03:56:43;99355.88;;;21.88;73.68
5755;BME280;2902;42.130;24.732;2023-06-19T03:59:09;99347.75;;;21.83;74.08
5755;BME280;2902;42.130;24.732;2023-06-19T04:01:36;99350.47;;;21.83;74.17
5755;BME280;2902;42.130;24.732;2023-06-19T04:04:03;99346.03;;;22.32;72.58
5755;BME280;2902;42.130;24.732;2023-06-19T04:06:30;99354.34;;;23.14;69.61
5755;BME280;2902;42.130;24.732;2023-06-19T04:08:56;99358.31;;;23.70;68.04
5755;BME280;2902;42.130;24.732;2023-06-19T04:11:23;99364.44;;;24.38;65.12
5755;BME280;2902;42.130;24.732;2023-06-19T04:13:51;99363.13;;;24.82;63.20
5755;BME280;2902;42.130;24.732;2023-06-19T04:16:18;99345.72;;;25.21;61.57
5755;BME280;2902;42.130;24.732;2023-06-19T04:18:45;99356.19;;;25.51;60.69
5755;BME280;2902;42.130;24.732;2023-06-19T04:21:11;99358.16;;;25.96;59.69
5755;BME280;2902;42.130;24.732;2023-06-19T04:23:38;99350.56;;;26.25;57.19
5755;BME280;2902;42.130;24.732;2023-06-19T04:26:05;99369.75;;;26.60;56.51
5755;BME280;2902;42.130;24.732;2023-06-19T04:28:31;99367.09;;;26.96;55.14
5755;BME280;2902;42.130;24.732;2023-06-19T04:30:59;99378.34;;;27.30;54.28
5755;BME280;2902;42.130;24.732;2023-06-19T04:33:26;99380.00;;;27.53;53.19
5755;BME280;2902;42.130;24.732;2023-06-19T04:35:53;99385.22;;;28.07;51.59
5755;BME280;2902;42.130;24.732;2023-06-19T04:38:20;99384.28;;;28.11;52.07
5755;BME280;2902;42.130;24.732;2023-06-19T04:40:49;99391.94;;;29.01;48.71
5755;BME280;2902;42.130;24.732;2023-06-19T04:43:16;99392.28;;;29.08;47.72
5755;BME280;2902;42.130;24.732;2023-06-19T04:45:42;99392.31;;;29.42;46.95
5755;BME280;2902;42.130;24.732;2023-06-19T04:48:11;99400.84;;;29.75;45.38
5755;BME280;2902;42.130;24.732;2023-06-19T04:50:37;99381.81;;;29.95;45.04
5755;BME280;2902;42.130;24.732;2023-06-19T04:53:04;99381.16;;;30.15;44.25
5755;BME280;2902;42.130;24.732;2023-06-19T04:55:31;99370.28;;;30.36;44.57
5755;BME280;2902;42.130;24.732;2023-06-19T04:57:58;99384.22;;;30.97;41.94
5755;BME280;2902;42.130;24.732;2023-06-19T05:00:25;99383.72;;;31.24;41.08
5755;BME280;2902;42.130;24.732;2023-06-19T05:02:52;99380.00;;;31.20;41.49
5755;BME280;2902;42.130;24.732;2023-06-19T05:05:20;99377.13;;;31.25;41.36
5755;BME280;2902;42.130;24.732;2023-06-19T05:07:47;99375.50;;;30.95;41.38
5755;BME280;2902;42.130;24.732;2023-06-19T05:10:13;99370.94;;;30.99;41.20
5755;BME280;2902;42.130;24.732;2023-06-19T05:12:40;99375.16;;;31.46;40.61
5755;BME280;2902;42.130;24.732;2023-06-19T05:15:08;99379.59;;;31.39;39.83
5755;BME280;2902;42.130;24.732;2023-06-19T05:17:35;99386.16;;;31.46;39.90
5755;BME280;2902;42.130;24.732;2023-06-19T05:20:05;99376.75;;;31.88;39.62
5755;BME280;2902;42.130;24.732;2023-06-19T05:22:33;99385.56;;;31.73;39.76
5755;BME280;2902;42.130;24.732;2023-06-19T05:25:02;99383.59;;;31.62;39.52
5755;BME280;2902;42.130;24.732;2023-06-19T05:27:28;99382.50;;;31.75;39.64
5755;BME280;2902;42.130;24.732;2023-06-19T05:29:55;99384.84;;;32.17;38.65
5755;BME280;2902;42.130;24.732;2023-06-19T05:32:22;99387.22;;;32.39;38.34
5755;BME280;2902;42.130;24.732;2023-06-19T05:34:49;99382.28;;;32.00;38.90
5755;BME280;2902;42.130;24.732;2023-06-19T05:37:16;99380.72;;;32.11;38.84
5755;BME280;2902;42.130;24.732;2023-06-19T05:39:44;99380.59;;;32.52;37.97
5755;BME280;2902;42.130;24.732;2023-06-19T05:42:10;99380.22;;;32.42;37.63
5755;BME280;2902;42.130;24.732;2023-06-19T05:44:37;99377.97;;;31.58;39.12
5755;BME280;2902;42.130;24.732;2023-06-19T05:47:05;99380.06;;;31.73;39.55
5755;BME280;2902;42.130;24.732;2023-06-19T05:49:32;99376.47;;;31.81;38.86
5755;BME280;2902;42.130;24.732;2023-06-19T05:51:59;99375.88;;;31.55;39.12
5755;BME280;2902;42.130;24.732;2023-06-19T05:54:26;99384.56;;;31.45;39.55
5755;BME280;2902;42.130;24.732;2023-06-19T05:56:54;99382.59;;;31.25;39.81
5755;BME280;2902;42.130;24.732;2023-06-19T05:59:21;99384.59;;;31.37;40.22
5755;BME280;2902;42.130;24.732;2023-06-19T06:01:48;99384.34;;;31.50;39.56
5755;BME280;2902;42.130;24.732;2023-06-19T06:04:16;99370.56;;;31.38;39.93
5755;BME280;2902;42.130;24.732;2023-06-19T06:06:42;99383.47;;;31.38;40.14
5755;BME280;2902;42.130;24.732;2023-06-19T06:09:09;99383.41;;;31.46;39.84
5755;BME280;2902;42.130;24.732;2023-06-19T06:11:37;99376.09;;;31.50;40.20
5755;BME280;2902;42.130;24.732;2023-06-19T06:14:05;99382.59;;;31.25;39.59
5755;BME280;2902;42.130;24.732;2023-06-19T06:16:32;99380.75;;;30.80;40.26
5755;BME280;2902;42.130;24.732;2023-06-19T06:18:59;99379.06;;;30.58;40.58
5755;BME280;2902;42.130;24.732;2023-06-19T06:21:25;99382.00;;;30.91;39.89
5755;BME280;2902;42.130;24.732;2023-06-19T06:23:52;99376.84;;;30.89;39.02
5755;BME280;2902;42.130;24.732;2023-06-19T06:26:20;99375.03;;;30.93;39.25
5755;BME280;2902;42.130;24.732;2023-06-19T06:28:46;99379.78;;;30.84;38.85
5755;BME280;2902;42.130;24.732;2023-06-19T06:31:15;99379.66;;;31.01;39.79
5755;BME280;2902;42.130;24.732;2023-06-19T06:33:41;99375.66;;;31.19;38.95
5755;BME280;2902;42.130;24.732;2023-06-19T06:36:08;99371.13;;;31.23;39.82
5755;BME280;2902;42.130;24.732;2023-06-19T06:38:35;99379.50;;;31.68;37.53
5755;BME280;2902;42.130;24.732;2023-06-19T06:41:02;99383.06;;;31.48;37.85
5755;BME280;2902;42.130;24.732;2023-06-19T06:43:28;99385.53;;;31.61;37.82
5755;BME280;2902;42.130;24.732;2023-06-19T06:45:55;99387.09;;;31.50;37.28
5755;BME280;2902;42.130;24.732;2023-06-19T06:48:23;99381.06;;;31.57;37.70
5755;BME280;2902;42.130;24.732;2023-06-19T06:50:50;99376.66;;;31.44;37.85
5755;BME280;2902;42.130;24.732;2023-06-19T06:53:18;99385.22;;;31.42;37.54
5755;BME280;2902;42.130;24.732;2023-06-19T06:55:44;99384.09;;;31.96;37.96
5755;BME280;2902;42.130;24.732;2023-06-19T06:58:11;99374.00;;;31.68;37.16
5755;BME280;2902;42.130;24.732;2023-06-19T07:00:39;99376.38;;;31.57;38.16
5755;BME280;2902;42.130;24.732;2023-06-19T07:03:07;99385.13;;;31.51;38.17
5755;BME280;2902;42.130;24.732;2023-06-19T07:05:35;99383.25;;;31.43;38.06
5755;BME280;2902;42.130;24.732;2023-06-19T07:08:02;99383.78;;;31.36;38.70
5755;BME280;2902;42.130;24.732;2023-06-19T07:10:29;99381.44;;;31.47;38.04
5755;BME280;2902;42.130;24.732;2023-06-19T07:12:55;99381.03;;;31.36;38.82
5755;BME280;2902;42.130;24.732;2023-06-19T07:15:22;99388.19;;;31.08;38.47
5755;BME280;2902;42.130;24.732;2023-06-19T07:17:49;99390.25;;;31.11;38.90
5755;BME280;2902;42.130;24.732;2023-06-19T07:20:16;99387.16;;;30.92;37.92
5755;BME280;2902;42.130;24.732;2023-06-19T07:22:44;99388.34;;;31.03;38.49
5755;BME280;2902;42.130;24.732;2023-06-19T07:25:11;99381.66;;;30.92;37.72
5755;BME280;2902;42.130;24.732;2023-06-19T07:27:40;99379.78;;;30.84;38.40
5755;BME280;2902;42.130;24.732;2023-06-19T07:30:07;99388.09;;;30.96;38.79
5755;BME280;2902;42.130;24.732;2023-06-19T07:32:34;99395.88;;;31.15;37.44
5755;BME280;2902;42.130;24.732;2023-06-19T07:35:01;99388.09;;;31.25;37.25
5755;BME280;2902;42.130;24.732;2023-06-19T07:37:27;99389.19;;;31.65;37.11
5755;BME280;2902;42.130;24.732;2023-06-19T07:39:55;99398.19;;;31.74;37.12
5755;BME280;2902;42.130;24.732;2023-06-19T07:42:22;99382.13;;;31.23;37.38
5755;BME280;2902;42.130;24.732;2023-06-19T07:44:49;99385.75;;;31.36;38.33
5755;BME280;2902;42.130;24.732;2023-06-19T07:47:16;99383.31;;;31.75;37.46
5755;BME280;2902;42.130;24.732;2023-06-19T07:49:44;99393.97;;;32.09;36.21
5755;BME280;2902;42.130;24.732;2023-06-19T07:52:11;99388.28;;;32.26;36.10
5755;BME280;2902;42.130;24.732;2023-06-19T07:54:49;99387.06;;;31.91;36.58
5755;BME280;2902;42.130;24.732;2023-06-19T07:57:18;99396.97;;;31.84;35.77
5755;BME280;2902;42.130;24.732;2023-06-19T07:59:45;99397.91;;;31.88;35.41
5755;BME280;2902;42.130;24.732;2023-06-19T08:02:12;99399.16;;;31.78;35.33
5755;BME280;2902;42.130;24.732;2023-06-19T08:04:39;99401.06;;;32.10;35.50
5755;BME280;2902;42.130;24.732;2023-06-19T08:07:05;99402.94;;;32.18;34.63
5755;BME280;2902;42.130;24.732;2023-06-19T08:09:32;99400.66;;;32.20;34.85
5755;BME280;2902;42.130;24.732;2023-06-19T08:12:00;99402.16;;;32.86;35.14
5755;BME280;2902;42.130;24.732;2023-06-19T08:14:28;99412.44;;;32.65;34.40
5755;BME280;2902;42.130;24.732;2023-06-19T08:16:55;99404.00;;;32.94;34.45
5755;BME280;2902;42.130;24.732;2023-06-19T08:19:22;99401.25;;;33.06;33.87
5755;BME280;2902;42.130;24.732;2023-06-19T08:21:48;99398.56;;;32.74;32.76
5755;BME280;2902;42.130;24.732;2023-06-19T08:24:15;99406.28;;;32.68;33.96
5755;BME280;2902;42.130;24.732;2023-06-19T08:26:42;99400.06;;;32.15;34.93
5755;BME280;2902;42.130;24.732;2023-06-19T08:29:09;99403.97;;;32.14;34.64
5755;BME280;2902;42.130;24.732;2023-06-19T08:31:37;99386.22;;;32.11;34.18
5755;BME280;2902;42.130;24.732;2023-06-19T08:34:03;99407.19;;;32.28;34.45
5755;BME280;2902;42.130;24.732;2023-06-19T08:36:33;99405.75;;;32.30;35.26
5755;BME280;2902;42.130;24.732;2023-06-19T08:39:00;99402.00;;;32.02;35.21
5755;BME280;2902;42.130;24.732;2023-06-19T08:41:26;99397.72;;;31.93;34.98
5755;BME280;2902;42.130;24.732;2023-06-19T08:43:54;99391.69;;;31.99;35.56
5755;BME280;2902;42.130;24.732;2023-06-19T08:46:21;99398.72;;;31.88;36.03
5755;BME280;2902;42.130;24.732;2023-06-19T08:48:49;99405.81;;;32.22;35.08
5755;BME280;2902;42.130;24.732;2023-06-19T08:51:16;99405.19;;;32.37;34.27
5755;BME280;2902;42.130;24.732;2023-06-19T08:53:47;99404.53;;;32.07;34.41
5755;BME280;2902;42.130;24.732;2023-06-19T08:56:15;99395.59;;;32.10;34.12
5755;BME280;2902;42.130;24.732;2023-06-19T08:58:42;99394.91;;;32.13;34.39
5755;BME280;2902;42.130;24.732;2023-06-19T09:01:09;99401.66;;;32.36;33.90
5755;BME280;2902;42.130;24.732;2023-06-19T09:03:36;99393.63;;;32.31;34.01
5755;BME280;2902;42.130;24.732;2023-06-19T09:06:06;99392.88;;;32.22;33.40
5755;BME280;2902;42.130;24.732;2023-06-19T09:08:33;99399.47;;;32.42;34.11
5755;BME280;2902;42.130;24.732;2023-06-19T09:11:01;99397.19;;;32.56;33.83
5755;BME280;2902;42.130;24.732;2023-06-19T09:13:29;99390.91;;;32.43;33.95
5755;BME280;2902;42.130;24.732;2023-06-19T09:16:00;99390.19;;;32.46;33.86
5755;BME280;2902;42.130;24.732;2023-06-19T09:18:29;99396.84;;;32.45;34.08
5755;BME280;2902;42.130;24.732;2023-06-19T09:20:56;99377.81;;;32.52;34.32
5755;BME280;2902;42.130;24.732;2023-06-19T09:23:24;99374.59;;;32.50;34.00
5755;BME280;2902;42.130;24.732;2023-06-19T09:25:53;99378.41;;;32.58;33.28
5755;BME280;2902;42.130;24.732;2023-06-19T09:28:21;99372.91;;;32.58;34.67
5755;BME280;2902;42.130;24.732;2023-06-19T09:30:55;99367.75;;;32.44;34.63
5755;BME280;2902;42.130;24.732;2023-06-19T09:33:23;99373.72;;;32.94;32.99
5755;BME280;2902;42.130;24.732;2023-06-19T09:35:50;99370.72;;;33.11;32.61
5755;BME280;2902;42.130;24.732;2023-06-19T09:38:17;99359.78;;;33.15;32.87
5755;BME280;2902;42.130;24.732;2023-06-19T09:40:47;99348.63;;;32.84;32.13
5755;BME280;2902;42.130;24.732;2023-06-19T09:43:19;99354.94;;;32.84;32.76
5755;BME280;2902;42.130;24.732;2023-06-19T09:45:49;99351.72;;;32.82;32.93
5755;BME280;2902;42.130;24.732;2023-06-19T09:48:19;99354.41;;;33.18;31.98
5755;BME280;2902;42.130;24.732;2023-06-19T09:50:50;99348.75;;;33.39;32.66
5755;BME280;2902;42.130;24.732;2023-06-19T09:53:18;99353.25;;;33.32;31.12
5755;BME280;2902;42.130;24.732;2023-06-19T09:55:49;99341.78;;;33.17;32.16
5755;BME280;2902;42.130;24.732;2023-06-19T09:58:17;99347.66;;;33.16;31.58
5755;BME280;2902;42.130;24.732;2023-06-19T10:00:45;99353.88;;;33.53;31.53
5755;BME280;2902;42.130;24.732;2023-06-19T10:03:15;99338.09;;;33.25;31.07
5755;BME280;2902;42.130;24.732;2023-06-19T10:05:42;99347.97;;;33.26;31.79
5755;BME280;2902;42.130;24.732;2023-06-19T10:08:09;99347.19;;;33.14;30.92
5755;BME280;2902;42.130;24.732;2023-06-19T10:10:36;99338.94;;;33.54;31.06
5755;BME280;2902;42.130;24.732;2023-06-19T10:13:14;99338.66;;;33.71;31.13
5755;BME280;2902;42.130;24.732;2023-06-19T10:15:42;99320.78;;;33.80;30.71
5755;BME280;2902;42.130;24.732;2023-06-19T10:18:13;99336.75;;;33.07;31.35
5755;BME280;2902;42.130;24.732;2023-06-19T10:20:42;99326.69;;;32.87;32.00
5755;BME280;2902;42.130;24.732;2023-06-19T10:23:12;99311.94;;;33.19;32.55
5755;BME280;2902;42.130;24.732;2023-06-19T10:25:42;99323.66;;;33.16;31.28
5755;BME280;2902;42.130;24.732;2023-06-19T10:28:18;99319.03;;;32.81;31.58
5755;BME280;2902;42.130;24.732;2023-06-19T10:30:45;99316.72;;;32.95;32.40
5755;BME280;2902;42.130;24.732;2023-06-19T10:33:11;99316.28;;;33.20;31.76
5755;BME280;2902;42.130;24.732;2023-06-19T10:35:39;99320.56;;;33.18;31.44
5755;BME280;2902;42.130;24.732;2023-06-19T10:38:06;99317.81;;;33.06;31.98
5755;BME280;2902;42.130;24.732;2023-06-19T10:40:35;99311.72;;;33.12;31.81
5755;BME280;2902;42.130;24.732;2023-06-19T10:43:02;99300.63;;;33.09;32.37
5755;BME280;2902;42.130;24.732;2023-06-19T10:45:31;99300.75;;;33.68;31.83
5755;BME280;2902;42.130;24.732;2023-06-19T10:48:00;99310.97;;;33.67;31.14
5755;BME280;2902;42.130;24.732;2023-06-19T10:50:27;99293.66;;;33.39;31.64
5755;BME280;2902;42.130;24.732;2023-06-19T10:52:54;99288.31;;;33.74;30.64
5755;BME280;2902;42.130;24.732;2023-06-19T10:55:24;99298.19;;;33.75;31.41
5755;BME280;2902;42.130;24.732;2023-06-19T10:57:51;99292.47;;;34.11;31.23
5755;BME280;2902;42.130;24.732;2023-06-19T11:00:26;99281.44;;;34.11;31.31
5755;BME280;2902;42.130;24.732;2023-06-19T11:02:55;99290.72;;;34.34;31.08
5755;BME280;2902;42.130;24.732;2023-06-19T11:05:22;99285.13;;;34.65;30.98
5755;BME280;2902;42.130;24.732;2023-06-19T11:07:53;99280.88;;;34.83;30.43
5755;BME280;2902;42.130;24.732;2023-06-19T11:10:21;99281.16;;;34.97;29.99
5755;BME280;2902;42.130;24.732;2023-06-19T11:12:48;99280.97;;;35.05;30.36
5755;BME280;2902;42.130;24.732;2023-06-19T11:15:15;99280.50;;;35.03;28.66
5755;BME280;2902;42.130;24.732;2023-06-19T11:17:42;99266.84;;;34.57;29.60
5755;BME280;2902;42.130;24.732;2023-06-19T11:20:11;99273.78;;;34.20;30.21
5755;BME280;2902;42.130;24.732;2023-06-19T11:22:39;99272.78;;;34.28;29.74
5755;BME280;2902;42.130;24.732;2023-06-19T11:25:08;99276.81;;;34.46;30.50
5755;BME280;2902;42.130;24.732;2023-06-19T11:27:38;99268.28;;;33.89;31.07
5755;BME280;2902;42.130;24.732;2023-06-19T11:30:06;99266.78;;;33.64;31.17
5755;BME280;2902;42.130;24.732;2023-06-19T11:32:35;99257.28;;;33.33;31.98
5755;BME280;2902;42.130;24.732;2023-06-19T11:35:07;99267.44;;;33.73;31.41
5755;BME280;2902;42.130;24.732;2023-06-19T11:37:35;99268.47;;;33.96;30.38
5755;BME280;2902;42.130;24.732;2023-06-19T11:40:02;99269.88;;;33.90;30.30
5755;BME280;2902;42.130;24.732;2023-06-19T11:42:44;99242.41;;;33.93;30.07
5755;BME280;2902;42.130;24.732;2023-06-19T11:45:11;99265.44;;;34.01;29.39
5755;BME280;2902;42.130;24.732;2023-06-19T11:47:38;99262.69;;;34.01;30.61
5755;BME280;2902;42.130;24.732;2023-06-19T11:50:06;99260.38;;;33.60;30.57
5755;BME280;2902;42.130;24.732;2023-06-19T11:52:33;99258.06;;;33.62;30.04
5755;BME280;2902;42.130;24.732;2023-06-19T11:55:01;99246.41;;;33.96;30.51
5755;BME280;2902;42.130;24.732;2023-06-19T11:57:28;99247.91;;;34.24;30.32
5755;BME280;2902;42.130;24.732;2023-06-19T11:59:54;99250.66;;;34.40;29.42
5755;BME280;2902;42.130;24.732;2023-06-19T12:02:21;99245.13;;;34.40;29.18
5755;BME280;2902;42.130;24.732;2023-06-19T12:04:48;99251.63;;;34.47;29.60
5755;BME280;2902;42.130;24.732;2023-06-19T12:07:15;99251.22;;;34.14;30.29
5755;BME280;2902;42.130;24.732;2023-06-19T12:09:42;99255.44;;;33.38;31.32
5755;BME280;2902;42.130;24.732;2023-06-19T12:12:11;99248.97;;;33.46;30.40
5755;BME280;2902;42.130;24.732;2023-06-19T12:14:37;99238.34;;;33.60;30.02
5755;BME280;2902;42.130;24.732;2023-06-19T12:17:05;99242.69;;;33.76;30.00
5755;BME280;2902;42.130;24.732;2023-06-19T12:19:31;99233.94;;;34.02;30.60
5755;BME280;2902;42.130;24.732;2023-06-19T12:21:58;99226.75;;;34.13;28.65
5755;BME280;2902;42.130;24.732;2023-06-19T12:24:25;99234.03;;;34.36;29.42
5755;BME280;2902;42.130;24.732;2023-06-19T12:26:52;99232.34;;;34.32;27.78
5755;BME280;2902;42.130;24.732;2023-06-19T12:29:20;99229.66;;;34.20;27.77
5755;BME280;2902;42.130;24.732;2023-06-19T12:31:47;99216.13;;;34.15;28.53
5755;BME280;2902;42.130;24.732;2023-06-19T12:34:13;99219.34;;;33.86;28.34
5755;BME280;2902;42.130;24.732;2023-06-19T12:36:40;99212.00;;;33.19;28.16
5755;BME280;2902;42.130;24.732;2023-06-19T12:39:07;99208.44;;;33.03;28.78
5755;BME280;2902;42.130;24.732;2023-06-19T12:41:40;99212.00;;;32.91;29.85
5755;BME280;2902;42.130;24.732;2023-06-19T12:44:07;99212.09;;;33.35;29.35
5755;BME280;2902;42.130;24.732;2023-06-19T12:46:35;99214.78;;;33.47;28.11
5755;BME280;2902;42.130;24.732;2023-06-19T12:49:01;99209.34;;;33.66;28.30
5755;BME280;2902;42.130;24.732;2023-06-19T12:51:28;99211.69;;;33.64;27.83
5755;BME280;2902;42.130;24.732;2023-06-19T12:53:55;99207.22;;;33.16;28.56
5755;BME280;2902;42.130;24.732;2023-06-19T12:56:22;99200.28;;;33.50;28.87
5755;BME280;2902;42.130;24.732;2023-06-19T12:58:49;99204.31;;;33.68;28.67
5755;BME280;2902;42.130;24.732;2023-06-19T13:01:15;99210.19;;;33.82;28.92
5755;BME280;2902;42.130;24.732;2023-06-19T13:03:44;99200.47;;;33.72;27.84
5755;BME280;2902;42.130;24.732;2023-06-19T13:06:10;99216.09;;;33.53;28.40
5755;BME280;2902;42.130;24.732;2023-06-19T13:08:37;99206.19;;;33.08;28.66
5755;BME280;2902;42.130;24.732;2023-06-19T13:11:04;99208.59;;;33.38;28.78